Time;durP1;ratioP1;P1;durP2;ratioP2;P2;SDS_P1;SDS_P2;PMS_P1;PMS_P2;Temp;Humidity;BMP_temperature;BMP_pressure;BME280_temperature;BME280_humidity;BME280_pressure;Samples;Min_cycle;Max_cycle;Signal;HPM_P1;HPM_P2
2022/11/21 00:00:31;;;;;;;38.63;13.70;;;3.80;99.90;;;;;;4989698;28;20041;-89
2022/11/21 00:03:00;;;;;;;28.33;12.40;;;3.80;99.90;;;;;;4983814;28;20027;-89
2022/11/21 00:05:26;;;;;;;34.15;13.85;;;3.90;99.90;;;;;;4991157;28;20046;-89
2022/11/21 00:07:53;;;;;;;22.63;10.85;;;3.90;99.90;;;;;;4987322;28;20034;-88
2022/11/21 00:10:31;;;;;;;32.00;12.32;;;3.80;99.90;;;;;;4991254;28;20038;-88
2022/11/21 00:12:57;;;;;;;28.85;11.95;;;3.80;99.90;;;;;;4964255;28;20072;-89
2022/11/21 00:15:25;;;;;;;41.22;14.20;;;3.80;99.90;;;;;;4984335;28;20035;-88
2022/11/21 00:17:51;;;;;;;33.20;10.85;;;3.90;99.90;;;;;;4988484;28;20195;-89
2022/11/21 00:20:19;;;;;;;23.80;10.05;;;3.80;99.90;;;;;;5008629;28;20102;-88
2022/11/21 00:22:50;;;;;;;27.80;10.32;;;3.90;99.90;;;;;;5003211;28;20030;-89
2022/11/21 00:25:15;;;;;;;28.23;8.75;;;3.80;99.90;;;;;;4989063;28;20057;-88
2022/11/21 00:27:41;;;;;;;25.30;9.38;;;3.80;99.90;;;;;;4986766;28;20038;-89
2022/11/21 00:30:09;;;;;;;26.02;11.45;;;3.80;99.90;;;;;;4982793;28;20022;-88
2022/11/21 00:32:34;;;;;;;27.67;12.77;;;3.80;99.90;;;;;;4988535;28;20045;-89
2022/11/21 00:35:00;;;;;;;35.75;15.10;;;3.80;99.90;;;;;;4988815;28;20035;-89
2022/11/21 00:37:26;;;;;;;37.22;19.42;;;3.80;99.90;;;;;;4981139;28;20513;-88
2022/11/21 00:39:53;;;;;;;38.35;19.95;;;3.90;99.90;;;;;;4987109;28;20414;-88
2022/11/21 00:42:19;;;;;;;42.10;18.70;;;3.90;99.90;;;;;;4989951;28;20027;-88
2022/11/21 00:44:44;;;;;;;36.63;20.67;;;3.90;99.90;;;;;;4986347;28;20085;-88
2022/11/21 00:47:10;;;;;;;45.75;21.67;;;3.90;99.90;;;;;;4968873;28;20031;-88
2022/11/21 00:49:36;;;;;;;40.78;20.90;;;3.90;99.90;;;;;;4968654;28;20037;-88
2022/11/21 00:52:02;;;;;;;40.17;19.42;;;3.90;99.90;;;;;;4976010;28;20165;-88
2022/11/21 00:54:27;;;;;;;52.42;20.27;;;3.90;99.90;;;;;;4989696;28;20125;-89
2022/11/21 00:56:53;;;;;;;44.00;18.15;;;3.90;99.90;;;;;;4977620;28;20489;-89
2022/11/21 00:59:19;;;;;;;33.78;16.52;;;3.90;99.90;;;;;;4989800;28;20054;-89
2022/11/21 01:01:45;;;;;;;49.03;16.65;;;3.90;99.90;;;;;;4975124;28;20389;-89
2022/11/21 01:04:11;;;;;;;42.40;13.40;;;3.90;99.90;;;;;;4976861;28;20027;-90
2022/11/21 01:06:37;;;;;;;34.35;16.92;;;3.90;99.90;;;;;;4977284;28;20114;-89
2022/11/21 01:09:03;;;;;;;34.17;13.50;;;3.90;99.90;;;;;;4977244;28;20485;-90
2022/11/21 01:11:29;;;;;;;24.33;13.20;;;3.90;99.90;;;;;;4974249;28;20581;-89
2022/11/21 01:13:55;;;;;;;35.45;12.88;;;3.80;99.90;;;;;;4975975;28;20057;-89
2022/11/21 01:16:23;;;;;;;30.15;12.68;;;3.90;99.90;;;;;;4976508;28;20035;-89
2022/11/21 01:18:49;;;;;;;34.83;12.95;;;3.90;99.90;;;;;;4976401;28;20027;-89
2022/11/21 01:21:21;;;;;;;36.92;13.23;;;3.90;99.90;;;;;;4977129;28;20049;-89
2022/11/21 01:23:48;;;;;;;33.05;12.38;;;3.90;99.90;;;;;;4979390;28;20499;-90
2022/11/21 01:26:19;;;;;;;43.65;12.27;;;3.90;99.90;;;;;;4988443;28;20492;-89
2022/11/21 01:28:45;;;;;;;28.83;12.70;;;3.90;99.90;;;;;;4986260;28;20027;-89
2022/11/21 01:31:13;;;;;;;42.58;11.70;;;3.90;99.90;;;;;;4988527;28;20053;-89
2022/11/21 01:33:39;;;;;;;35.58;12.85;;;3.80;99.90;;;;;;4986663;28;20039;-89
2022/11/21 01:36:14;;;;;;;28.05;11.85;;;3.80;99.90;;;;;;5004798;28;20032;-88
2022/11/21 01:38:42;;;;;;;37.22;10.77;;;3.80;99.90;;;;;;5003906;28;20037;-88
2022/11/21 01:41:09;;;;;;;38.30;11.07;;;3.90;99.90;;;;;;4987882;28;20040;-88
2022/11/21 01:43:35;;;;;;;38.60;11.93;;;3.80;99.90;;;;;;4987542;28;20038;-89
2022/11/21 01:46:06;;;;;;;36.83;13.32;;;3.80;99.90;;;;;;4986301;28;20057;-89
2022/11/21 01:48:50;;;;;;;30.75;12.77;;;3.90;99.90;;;;;;5020024;28;20026;-89
2022/11/21 01:51:47;;;;;;;34.22;12.05;;;3.90;99.90;;;;;;4984016;28;20390;-89
2022/11/21 01:54:18;;;;;;;45.75;14.43;;;3.90;99.90;;;;;;4998811;28;20038;-89
2022/11/21 01:56:49;;;;;;;;;;;3.80;99.90;;;;;;4993072;28;20037;-89
2022/11/21 01:59:24;;;;;;;30.63;11.93;;;3.80;99.90;;;;;;4985635;28;19964;-90
2022/11/21 02:01:52;;;;;;;40.33;12.75;;;3.80;99.90;;;;;;4987089;28;20167;-89
2022/11/21 02:04:21;;;;;;;35.63;14.07;;;3.80;99.90;;;;;;4987340;28;20027;-89
2022/11/21 02:06:47;;;;;;;33.63;12.85;;;3.80;99.90;;;;;;4986701;28;20039;-89
2022/11/21 02:09:13;;;;;;;41.90;12.95;;;3.80;99.90;;;;;;4988334;28;20041;-89
2022/11/21 02:11:48;;;;;;;26.13;12.60;;;3.90;99.90;;;;;;4985316;28;20031;-89
2022/11/21 02:14:14;;;;;;;27.73;11.35;;;3.80;99.90;;;;;;4989080;28;20039;-89
2022/11/21 02:16:40;;;;;;;29.25;11.70;;;3.80;99.90;;;;;;4985611;28;20034;-89
2022/11/21 02:19:14;;;;;;;27.80;12.05;;;3.80;99.90;;;;;;4970216;28;20018;-89
2022/11/21 02:21:54;;;;;;;30.98;11.20;;;3.80;99.90;;;;;;5001928;28;20441;-89
2022/11/21 02:24:48;;;;;;;33.53;11.65;;;3.80;99.90;;;;;;5003024;28;20031;-89
2022/11/21 02:27:15;;;;;;;30.08;13.23;;;3.80;99.90;;;;;;4964679;28;20508;-89
2022/11/21 02:29:41;;;;;;;37.30;14.23;;;3.80;99.90;;;;;;4985766;28;20035;-89
2022/11/21 02:32:07;;;;;;;24.67;12.57;;;3.90;99.90;;;;;;4987138;28;20100;-89
2022/11/21 02:34:45;;;;;;;35.47;13.10;;;3.80;99.90;;;;;;4986131;28;20054;-89
2022/11/21 02:37:36;;;;;;;27.15;10.60;;;3.80;99.90;;;;;;4987352;28;20045;-89
2022/11/21 02:40:08;;;;;;;27.95;11.52;;;3.80;99.90;;;;;;4978257;28;20035;-89
2022/11/21 02:42:49;;;;;;;24.10;10.32;;;3.80;99.90;;;;;;4986883;28;20030;-89
2022/11/21 02:45:38;;;;;;;22.73;10.43;;;3.80;99.90;;;;;;4988100;28;20039;-89
2022/11/21 02:48:04;;;;;;;21.23;10.00;;;3.80;99.90;;;;;;4972984;28;20061;-89
2022/11/21 02:50:33;;;;;;;26.73;9.75;;;3.80;99.90;;;;;;4986344;28;20061;-89
2022/11/21 02:52:59;;;;;;;15.90;9.52;;;3.80;99.90;;;;;;4967146;28;20038;-89
2022/11/21 02:55:47;;;;;;;21.63;10.32;;;3.70;99.90;;;;;;5002971;28;20038;-89
2022/11/21 02:58:12;;;;;;;24.70;10.15;;;3.70;99.90;;;;;;4999328;28;20038;-89
2022/11/21 03:00:40;;;;;;;24.85;9.68;;;3.70;99.90;;;;;;4985623;28;20045;-89
2022/11/21 03:03:06;;;;;;;24.92;8.93;;;3.70;99.90;;;;;;4984718;28;20023;-89
2022/11/21 03:05:47;;;;;;;18.25;9.15;;;3.70;99.90;;;;;;5006020;28;20398;-89
2022/11/21 03:08:13;;;;;;;19.65;8.50;;;3.70;99.90;;;;;;4967404;28;20494;-89
2022/11/21 03:10:38;;;;;;;21.00;8.23;;;3.70;99.90;;;;;;4990179;28;20034;-89
2022/11/21 03:13:04;;;;;;;18.08;8.18;;;3.70;99.90;;;;;;4967771;28;20034;-89
2022/11/21 03:15:32;;;;;;;22.13;9.10;;;3.70;99.90;;;;;;4991027;28;20812;-89
2022/11/21 03:18:01;;;;;;;16.15;9.30;;;3.70;99.90;;;;;;4981461;28;20571;-89
2022/11/21 03:20:28;;;;;;;22.70;9.50;;;3.70;99.90;;;;;;4986474;28;20857;-89
2022/11/21 03:22:54;;;;;;;20.45;10.20;;;3.70;99.90;;;;;;4986507;28;20053;-89
2022/11/21 03:25:20;;;;;;;26.35;9.30;;;3.80;99.90;;;;;;4987321;28;20034;-90
2022/11/21 03:27:45;;;;;;;23.55;10.60;;;3.80;99.90;;;;;;5002052;28;20126;-89
2022/11/21 03:30:11;;;;;;;19.67;9.18;;;3.80;99.90;;;;;;4970570;28;20057;-88
2022/11/21 03:32:37;;;;;;;20.60;9.38;;;3.80;99.90;;;;;;4986867;28;20034;-89
2022/11/21 03:35:03;;;;;;;23.27;9.05;;;3.80;99.90;;;;;;4971589;28;20525;-89
2022/11/21 03:37:29;;;;;;;18.00;9.70;;;3.80;99.90;;;;;;4986472;28;20035;-88
2022/11/21 03:39:55;;;;;;;22.27;8.90;;;3.80;99.90;;;;;;4968570;28;20054;-89
2022/11/21 03:42:20;;;;;;;15.63;8.50;;;3.80;99.90;;;;;;4986459;28;20076;-89
2022/11/21 03:44:46;;;;;;;20.60;8.00;;;3.80;99.90;;;;;;4969335;28;20045;-89
2022/11/21 03:47:11;;;;;;;15.63;7.22;;;3.80;99.90;;;;;;4986842;28;20493;-89
2022/11/21 03:49:37;;;;;;;14.02;6.13;;;3.80;99.90;;;;;;4969630;28;20030;-89
2022/11/21 03:52:03;;;;;;;11.77;5.93;;;3.80;99.90;;;;;;4985928;28;20572;-89
2022/11/21 03:54:29;;;;;;;15.05;6.22;;;3.80;99.90;;;;;;4969846;28;20044;-89
2022/11/21 03:56:54;;;;;;;14.05;6.28;;;3.80;99.90;;;;;;4968165;28;20023;-89
2022/11/21 03:59:20;;;;;;;12.10;5.78;;;3.80;99.90;;;;;;4970275;28;20018;-89
2022/11/21 04:01:45;;;;;;;14.85;5.85;;;3.80;99.90;;;;;;4972370;28;20085;-89
2022/11/21 04:04:11;;;;;;;16.10;6.15;;;3.80;99.90;;;;;;4989995;28;20102;-90
2022/11/21 04:07:28;;;;;;;12.85;7.20;;;3.80;99.90;;;;;;4989275;28;20038;-89
2022/11/21 04:10:12;;;;;;;14.90;7.28;;;3.80;99.90;;;;;;4985336;28;20081;-89
2022/11/21 04:12:38;;;;;;;20.02;8.00;;;3.80;99.90;;;;;;4976854;28;20521;-88
2022/11/21 04:15:04;;;;;;;15.52;7.22;;;3.80;99.90;;;;;;5004519;28;20034;-88
2022/11/21 04:17:30;;;;;;;12.65;6.80;;;3.80;99.90;;;;;;4985369;28;20029;-87
2022/11/21 04:20:11;;;;;;;10.85;5.95;;;3.80;99.90;;;;;;5006812;28;20528;-87
2022/11/21 04:22:37;;;;;;;12.05;4.90;;;3.80;99.90;;;;;;4987291;28;20039;-88
2022/11/21 04:25:03;;;;;;;11.80;4.88;;;3.70;99.90;;;;;;4973247;28;20027;-88
2022/11/21 04:27:28;;;;;;;10.20;4.38;;;3.70;99.90;;;;;;4971592;28;20092;-87
2022/11/21 04:29:54;;;;;;;11.57;4.85;;;3.70;99.90;;;;;;4988337;28;20133;-88
2022/11/21 04:32:20;;;;;;;9.77;5.55;;;3.70;99.90;;;;;;4989768;28;20642;-88
2022/11/21 04:34:54;;;;;;;12.80;5.78;;;3.70;99.90;;;;;;4989071;28;20470;-89
2022/11/21 04:37:20;;;;;;;25.77;7.18;;;3.80;99.90;;;;;;5005899;28;20049;-88
2022/11/21 04:39:46;;;;;;;14.85;7.47;;;3.80;99.90;;;;;;4987957;28;20098;-88
2022/11/21 04:42:11;;;;;;;17.58;8.27;;;3.80;99.90;;;;;;5005707;28;20116;-89
2022/11/21 04:44:37;;;;;;;16.33;8.80;;;3.80;99.90;;;;;;4988469;28;20078;-89
2022/11/21 04:47:03;;;;;;;22.92;8.38;;;3.80;99.90;;;;;;4973300;28;20405;-89
2022/11/21 04:49:28;;;;;;;22.50;10.32;;;3.80;99.90;;;;;;4990019;28;20474;-89
2022/11/21 04:51:54;;;;;;;20.17;8.57;;;3.80;99.90;;;;;;4989737;28;20149;-90
2022/11/21 04:54:19;;;;;;;18.65;10.30;;;3.80;99.90;;;;;;4989743;28;20124;-89
2022/11/21 04:56:45;;;;;;;24.92;8.85;;;3.80;99.90;;;;;;4971249;28;20066;-90
2022/11/21 04:59:11;;;;;;;18.02;8.85;;;3.70;99.90;;;;;;4973109;28;20022;-89
2022/11/21 05:01:37;;;;;;;18.77;9.10;;;3.80;99.90;;;;;;4972004;28;20032;-89
2022/11/21 05:04:03;;;;;;;22.17;8.98;;;3.80;99.90;;;;;;4990911;28;20022;-89
2022/11/21 05:06:28;;;;;;;21.40;10.60;;;3.70;99.90;;;;;;4973328;28;20026;-90
2022/11/21 05:08:54;;;;;;;24.83;10.63;;;3.70;99.90;;;;;;5005785;28;20030;-89
2022/11/21 05:14:05;;;;;;;16.42;8.65;;;3.70;99.90;;;;;;4997629;28;20026;-90
2022/11/21 05:16:34;;;;;;;18.88;8.68;;;3.70;99.90;;;;;;4973369;28;20045;-89
2022/11/21 05:18:59;;;;;;;21.23;8.55;;;3.70;99.90;;;;;;4986336;28;20026;-89
2022/11/21 05:22:18;;;;;;;21.98;9.63;;;3.70;99.90;;;;;;4986018;28;20031;-89
2022/11/21 05:24:43;;;;;;;20.67;9.48;;;3.70;99.90;;;;;;4985386;28;20038;-89
2022/11/21 05:27:09;;;;;;;22.48;10.88;;;3.70;99.90;;;;;;4972618;28;20038;-89
2022/11/21 05:29:35;;;;;;;22.00;10.68;;;3.70;99.90;;;;;;4999700;28;20463;-88
2022/11/21 05:32:00;;;;;;;14.68;8.38;;;3.70;99.90;;;;;;4988543;28;20034;-89
2022/11/21 05:34:26;;;;;;;18.25;8.15;;;3.70;99.90;;;;;;4972775;28;20037;-88
2022/11/21 05:36:58;;;;;;;16.58;8.65;;;3.70;99.90;;;;;;4988327;28;20031;-88
2022/11/21 05:39:24;;;;;;;17.88;8.48;;;3.70;99.90;;;;;;5004261;28;20105;-89
2022/11/21 05:41:50;;;;;;;22.30;9.15;;;3.70;99.90;;;;;;4987301;28;20031;-88
2022/11/21 05:44:16;;;;;;;17.73;7.50;;;3.70;99.90;;;;;;4971869;28;20042;-89
2022/11/21 05:47:28;;;;;;;13.73;8.32;;;3.70;99.90;;;;;;4987194;28;20101;-89
2022/11/21 05:49:54;;;;;;;22.05;8.85;;;3.70;99.90;;;;;;4987446;28;20434;-89
2022/11/21 05:52:20;;;;;;;21.98;8.07;;;3.70;99.90;;;;;;4989462;28;20033;-89
2022/11/21 05:54:45;;;;;;;18.25;8.55;;;3.70;99.90;;;;;;4986750;28;20030;-89
2022/11/21 05:57:11;;;;;;;19.02;8.57;;;3.70;99.90;;;;;;4988259;28;20133;-88
2022/11/21 05:59:37;;;;;;;22.85;8.52;;;3.70;99.90;;;;;;4987480;28;20371;-89
2022/11/21 06:04:46;;;;;;;21.42;9.55;;;3.70;99.90;;;;;;4987263;28;20054;-89
2022/11/21 06:07:12;;;;;;;25.73;10.60;;;3.70;99.90;;;;;;5006039;28;20474;-89
2022/11/21 06:09:38;;;;;;;24.30;10.13;;;3.70;99.90;;;;;;4970835;28;20093;-89
2022/11/21 06:12:25;;;;;;;19.45;9.38;;;3.60;99.90;;;;;;5000979;28;20037;-89
2022/11/21 06:14:51;;;;;;;20.00;10.00;;;3.70;99.90;;;;;;4990087;28;20042;-89
2022/11/21 06:17:17;;;;;;;23.05;9.88;;;3.70;99.90;;;;;;4984112;28;20034;-89
2022/11/21 06:19:42;;;;;;;24.58;10.45;;;3.70;99.90;;;;;;4987060;28;20027;-89
2022/11/21 06:22:08;;;;;;;28.42;9.88;;;3.70;99.90;;;;;;4987301;28;20530;-89
2022/11/21 06:24:34;;;;;;;22.27;11.20;;;3.60;99.90;;;;;;4967926;28;20097;-89
2022/11/21 06:26:59;;;;;;;27.15;12.18;;;3.70;99.90;;;;;;5003498;28;20375;-88
2022/11/21 06:29:25;;;;;;;23.45;11.50;;;3.70;99.90;;;;;;4985685;28;20159;-89
2022/11/21 06:31:51;;;;;;;33.50;12.98;;;3.70;99.90;;;;;;4986106;28;20390;-89
2022/11/21 06:34:16;;;;;;;29.38;13.82;;;3.70;99.90;;;;;;4988788;28;20089;-89
2022/11/21 06:36:43;;;;;;;26.48;12.93;;;3.60;99.90;;;;;;4985258;28;20034;-89
2022/11/21 06:39:09;;;;;;;25.65;12.32;;;3.60;99.90;;;;;;4987579;28;20038;-88
2022/11/21 06:41:34;;;;;;;34.97;12.57;;;3.60;99.90;;;;;;4969247;28;20023;-89
2022/11/21 06:44:00;;;;;;;27.33;15.07;;;3.60;99.90;;;;;;4984835;28;20577;-89
2022/11/21 06:46:54;;;;;;;31.60;13.27;;;3.60;99.90;;;;;;4973809;28;20027;-88
2022/11/21 06:49:21;;;;;;;25.48;11.77;;;3.60;99.90;;;;;;4963872;28;20088;-88
2022/11/21 06:51:46;;;;;;;30.33;13.57;;;3.60;99.90;;;;;;4990489;28;20031;-89
2022/11/21 06:54:12;;;;;;;27.00;13.02;;;3.60;99.90;;;;;;4957598;28;20033;-89
2022/11/21 06:57:03;;;;;;;33.90;15.20;;;3.60;99.90;;;;;;4974519;28;20374;-89
2022/11/21 06:59:29;;;;;;;28.92;12.85;;;3.60;99.90;;;;;;4974292;28;20498;-89
2022/11/21 07:01:54;;;;;;;35.45;15.00;;;3.60;99.90;;;;;;4974000;28;20027;-90
2022/11/21 07:04:20;;;;;;;36.13;14.10;;;3.60;99.90;;;;;;4974250;28;20055;-88
2022/11/21 07:06:46;;;;;;;41.42;15.65;;;3.60;99.90;;;;;;4987455;28;20055;-89
2022/11/21 07:09:11;;;;;;;36.08;17.02;;;3.60;99.90;;;;;;4987290;28;20042;-89
2022/11/21 07:11:37;;;;;;;33.10;15.32;;;3.60;99.90;;;;;;4972407;28;20522;-88
2022/11/21 07:14:03;;;;;;;32.95;15.48;;;3.60;99.90;;;;;;4986883;28;20027;-88
2022/11/21 07:16:31;;;;;;;41.63;16.42;;;3.70;99.90;;;;;;4969983;28;20035;-89
2022/11/21 07:18:57;;;;;;;33.53;16.00;;;3.70;99.90;;;;;;4970539;28;20033;-88
2022/11/21 07:21:23;;;;;;;37.60;17.83;;;3.60;99.90;;;;;;4985497;28;20035;-89
2022/11/21 07:23:48;;;;;;;40.28;19.90;;;3.70;99.90;;;;;;4974752;28;20050;-89
2022/11/21 07:26:14;;;;;;;34.05;17.58;;;3.70;99.90;;;;;;4987071;28;20118;-88
2022/11/21 07:28:40;;;;;;;35.30;16.75;;;3.70;99.90;;;;;;4971469;28;20066;-89
2022/11/21 07:31:06;;;;;;;50.03;19.90;;;3.70;99.90;;;;;;4973604;28;20023;-89
2022/11/21 07:33:31;;;;;;;34.38;18.98;;;3.70;99.90;;;;;;4957793;28;20435;-88
2022/11/21 07:35:57;;;;;;;40.22;20.40;;;3.70;99.90;;;;;;4967406;28;20113;-88
2022/11/21 07:38:26;;;;;;;34.88;17.65;;;3.70;99.90;;;;;;4984424;28;21385;-89
2022/11/21 07:40:52;;;;;;;34.08;17.08;;;3.70;99.90;;;;;;4985025;28;20184;-88
2022/11/21 07:43:17;;;;;;;43.38;15.20;;;3.70;99.90;;;;;;4970987;28;20098;-89
2022/11/21 07:45:43;;;;;;;36.85;14.65;;;3.70;99.90;;;;;;4984132;28;20161;-88
2022/11/21 07:48:09;;;;;;;36.15;14.80;;;3.60;99.90;;;;;;4966519;28;20045;-88
2022/11/21 07:50:35;;;;;;;43.00;15.13;;;3.70;99.90;;;;;;4989131;28;20538;-89
2022/11/21 07:53:03;;;;;;;30.25;14.85;;;3.70;99.90;;;;;;4973583;28;20046;-89
2022/11/21 07:55:29;;;;;;;32.28;15.93;;;3.70;99.90;;;;;;4989181;28;20047;-89
2022/11/21 07:58:10;;;;;;;31.13;14.77;;;3.70;99.90;;;;;;4976380;28;20049;-89
2022/11/21 08:00:38;;;;;;;33.13;14.55;;;3.70;99.90;;;;;;4975991;28;20482;-88
2022/11/21 08:03:24;;;;;;;34.03;14.13;;;3.60;99.90;;;;;;4975757;28;20026;-88
2022/11/21 08:05:50;;;;;;;31.50;14.18;;;3.60;99.90;;;;;;4988537;28;20046;-88
2022/11/21 08:08:21;;;;;;;34.25;14.38;;;3.70;99.90;;;;;;4976227;28;20039;-89
2022/11/21 08:10:47;;;;;;;39.05;14.85;;;3.70;99.90;;;;;;4976658;28;20076;-89
2022/11/21 08:13:13;;;;;;;25.48;12.00;;;3.70;99.90;;;;;;4976291;28;20030;-88
2022/11/21 08:15:39;;;;;;;30.92;12.88;;;3.70;99.90;;;;;;4992869;28;20035;-89
2022/11/21 08:18:19;;;;;;;27.67;12.82;;;3.70;99.90;;;;;;4976085;28;20027;-89
2022/11/21 08:20:45;;;;;;;28.65;14.40;;;3.60;99.90;;;;;;4975811;28;20101;-89
2022/11/21 08:23:11;;;;;;;23.65;14.35;;;3.60;99.90;;;;;;4959950;28;20042;-88
2022/11/21 08:25:38;;;;;;;31.20;14.25;;;3.60;99.90;;;;;;4989525;28;20435;-88
2022/11/21 08:28:04;;;;;;;45.40;17.55;;;3.60;99.90;;;;;;4974323;28;20034;-88
2022/11/21 08:30:31;;;;;;;47.20;18.55;;;3.60;99.90;;;;;;4970999;28;20071;-88
2022/11/21 08:32:57;;;;;;;65.38;30.08;;;3.70;99.90;;;;;;4963017;28;20031;-88
2022/11/21 08:35:24;;;;;;;63.55;24.05;;;3.60;99.90;;;;;;4973473;28;20070;-88
2022/11/21 08:37:58;;;;;;;30.95;16.55;;;3.60;99.90;;;;;;4977686;28;20069;-89
2022/11/21 08:40:36;;;;;;;48.75;17.75;;;3.60;99.90;;;;;;4965610;28;20034;-88
2022/11/21 08:43:05;;;;;;;44.03;16.05;;;3.60;99.90;;;;;;4982187;28;20023;-88
2022/11/21 08:45:32;;;;;;;42.08;16.10;;;3.60;99.90;;;;;;4967501;28;20275;-88
2022/11/21 08:47:58;;;;;;;33.88;15.32;;;3.60;99.90;;;;;;4974813;28;20035;-89
2022/11/21 08:50:24;;;;;;;40.58;16.52;;;3.60;99.90;;;;;;4969217;28;20096;-88
2022/11/21 08:52:50;;;;;;;37.55;15.57;;;3.60;99.90;;;;;;4958685;28;20046;-89
2022/11/21 08:55:15;;;;;;;60.22;22.40;;;3.60;99.90;;;;;;4975204;28;20146;-88
2022/11/21 09:01:28;;;;;;;43.35;17.95;;;3.70;99.90;;;;;;4970019;28;20034;-89
2022/11/21 09:03:54;;;;;;;37.33;16.70;;;3.60;99.90;;;;;;4974464;28;20026;-88
2022/11/21 09:06:20;;;;;;;28.17;16.25;;;3.60;99.90;;;;;;4991197;28;20402;-88
2022/11/21 09:08:45;;;;;;;33.13;14.70;;;3.50;99.90;;;;;;4975382;28;20034;-88
2022/11/21 09:11:33;;;;;;;35.47;15.90;;;3.60;99.90;;;;;;4979041;28;20158;-88
2022/11/21 09:19:29;;;;;;;26.25;12.38;;;3.80;99.90;;;;;;4998094;28;20039;-89
2022/11/21 09:21:54;;;;;;;36.88;15.05;;;3.90;99.90;;;;;;4999749;28;20096;-89
2022/11/21 09:24:20;;;;;;;36.45;16.33;;;3.90;99.90;;;;;;4984812;28;20034;-89
2022/11/21 09:26:46;;;;;;;31.23;11.95;;;4.00;99.90;;;;;;4985156;28;20547;-87
2022/11/21 09:29:16;;;;;;;23.95;11.45;;;4.10;99.90;;;;;;4988130;28;20086;-90
2022/11/21 09:31:42;;;;;;;24.83;11.55;;;4.10;99.90;;;;;;4984882;28;20030;-88
2022/11/21 09:34:08;;;;;;;26.17;10.40;;;4.30;99.90;;;;;;4986793;28;20037;-90
2022/11/21 09:36:33;;;;;;;14.15;7.75;;;4.50;99.90;;;;;;4984372;28;20042;-89
2022/11/21 09:38:59;;;;;;;16.27;7.65;;;4.50;99.90;;;;;;4970706;28;20026;-89
2022/11/21 09:41:53;;;;;;;28.23;7.18;;;4.40;99.90;;;;;;4970006;28;20027;-89
2022/11/21 09:44:21;;;;;;;17.42;5.88;;;4.30;99.90;;;;;;4997787;28;20065;-89
2022/11/21 09:46:53;;;;;;;10.38;5.00;;;4.30;99.90;;;;;;4980053;28;20546;-89
2022/11/21 09:49:24;;;;;;;13.73;4.45;;;4.30;99.90;;;;;;4970849;28;20037;-89
2022/11/21 09:51:51;;;;;;;15.57;5.27;;;4.30;99.90;;;;;;5000797;28;20069;-90
2022/11/21 09:54:30;;;;;;;18.48;5.25;;;4.20;99.90;;;;;;4987365;28;20265;-90
2022/11/21 09:57:02;;;;;;;18.38;5.25;;;4.20;99.90;;;;;;4983666;28;20031;-90
2022/11/21 09:59:33;;;;;;;12.00;4.53;;;4.30;99.90;;;;;;4980861;28;20345;-89
2022/11/21 10:02:00;;;;;;;16.40;4.95;;;4.20;99.90;;;;;;4991033;28;20041;-90
2022/11/21 10:04:26;;;;;;;14.50;4.63;;;4.20;99.90;;;;;;4989807;28;20027;-90
2022/11/21 10:06:59;;;;;;;15.82;5.60;;;4.20;99.90;;;;;;4984638;28;20037;-90
2022/11/21 10:09:46;;;;;;;29.52;14.40;;;4.30;99.90;;;;;;4994925;28;20027;-90
2022/11/21 10:12:38;;;;;;;15.10;5.82;;;4.40;99.90;;;;;;4978950;28;20023;-89
2022/11/21 10:15:31;;;;;;;21.17;4.80;;;4.70;99.90;;;;;;4991968;28;20042;-89
2022/11/21 10:18:08;;;;;;;15.63;4.50;;;4.80;99.90;;;;;;5001349;28;20406;-88
2022/11/21 10:20:37;;;;;;;19.52;6.32;;;4.60;99.90;;;;;;4993608;28;20039;-88
2022/11/21 10:23:21;;;;;;;15.73;4.30;;;4.50;99.90;;;;;;4993550;28;20024;-88
2022/11/21 10:26:02;;;;;;;9.07;3.42;;;4.50;99.90;;;;;;5015654;28;20847;-88
2022/11/21 10:28:40;;;;;;;;;;;4.70;99.90;;;;;;5005303;28;20034;-88
2022/11/21 10:31:10;;;;;;;6.82;3.08;;;4.80;99.90;;;;;;4997163;28;19915;-88
2022/11/21 10:33:39;;;;;;;9.85;4.03;;;4.70;99.90;;;;;;4989306;28;20030;-87
2022/11/21 10:36:42;;;;;;;11.05;3.70;;;4.70;99.90;;;;;;4984155;28;20027;-88
2022/11/21 10:39:17;;;;;;;7.60;3.78;;;5.00;99.90;;;;;;4955757;28;20035;-88
2022/11/21 10:42:08;;;;;;;8.05;3.00;;;5.20;99.90;;;;;;4970211;28;20419;-87
2022/11/21 10:47:28;;;;;;;8.00;3.25;;;6.00;99.90;;;;;;5000805;28;20037;-88
2022/11/21 10:50:09;;;;;;;14.30;4.47;;;6.40;99.90;;;;;;4975965;28;20036;-88
2022/11/21 10:52:44;;;;;;;14.30;2.95;;;6.60;99.90;;;;;;4989255;28;20042;-87
2022/11/21 10:55:12;;;;;;;9.95;3.67;;;6.80;99.90;;;;;;4956576;28;20042;-88
2022/11/21 10:57:50;;;;;;;13.93;3.92;;;6.50;99.90;;;;;;4972496;28;20058;-87
2022/11/21 11:00:26;;;;;;;6.28;3.22;;;6.20;99.90;;;;;;4960739;28;20482;-87
2022/11/21 11:02:54;;;;;;;8.05;2.38;;;6.00;99.90;;;;;;4973400;28;20030;-88
2022/11/21 11:05:25;;;;;;;13.65;2.60;;;5.70;99.90;;;;;;4972394;28;20027;-86
2022/11/21 11:08:07;;;;;;;12.88;4.97;;;5.60;99.90;;;;;;4971473;28;20035;-86
2022/11/21 11:10:38;;;;;;;20.85;6.43;;;5.70;99.90;;;;;;4963620;28;20040;-86
2022/11/21 11:16:00;;;;;;;11.48;2.55;;;6.00;99.90;;;;;;4986114;28;20050;-86
2022/11/21 11:18:59;;;;;;;11.88;2.50;;;5.80;99.90;;;;;;4974253;28;20050;-85
2022/11/21 11:21:27;;;;;;;10.90;3.15;;;5.60;99.90;;;;;;5003490;28;20031;-86
2022/11/21 11:24:05;;;;;;;12.40;3.63;;;5.70;99.90;;;;;;4990878;28;20054;-87
2022/11/21 11:26:31;;;;;;;14.82;3.33;;;6.10;99.90;;;;;;4969530;28;20097;-87
2022/11/21 11:29:19;;;;;;;9.43;2.80;;;6.10;99.90;;;;;;4998390;28;20030;-86
2022/11/21 11:31:56;;;;;;;13.85;3.33;;;5.90;99.90;;;;;;4986879;28;20102;-86
2022/11/21 11:34:40;;;;;;;15.57;3.33;;;5.60;99.90;;;;;;4986709;28;20455;-86
2022/11/21 11:37:34;;;;;;;10.27;3.88;;;5.50;99.90;;;;;;4972803;28;20442;-86
2022/11/21 11:40:25;;;;;;;11.70;2.97;;;5.30;99.90;;;;;;4990647;28;20061;-86
2022/11/21 11:48:29;;;;;;;9.25;3.22;;;4.90;99.90;;;;;;4996057;28;20035;-86
2022/11/21 11:51:01;;;;;;;12.55;3.67;;;4.80;99.90;;;;;;4991527;28;20125;-85
2022/11/21 11:53:36;;;;;;;;;;;4.70;99.90;;;;;;4988817;28;20027;-86
2022/11/21 11:56:16;;;;;;;7.85;2.40;;;4.50;99.90;;;;;;4974991;28;20060;-86
2022/11/21 11:59:22;;;;;;;12.25;2.60;;;4.50;99.90;;;;;;4987921;28;20039;-86
2022/11/21 12:05:50;;;;;;;12.90;3.70;;;4.40;99.90;;;;;;4988282;28;20041;-86
2022/11/21 12:08:23;;;;;;;11.90;3.95;;;4.40;99.90;;;;;;4972898;28;20037;-86
2022/11/21 12:13:42;;;;;;;11.73;4.15;;;4.40;99.90;;;;;;4991730;28;20066;-86
2022/11/21 12:16:12;;;;;;;15.85;4.05;;;4.30;99.90;;;;;;4991432;28;20040;-86
2022/11/21 12:18:54;;;;;;;13.68;4.25;;;4.30;99.90;;;;;;4991015;28;20077;-86
2022/11/21 12:21:20;;;;;;;12.73;4.20;;;4.30;99.90;;;;;;4987940;28;20030;-86
2022/11/21 12:23:49;;;;;;;23.70;7.55;;;4.20;99.90;;;;;;4992398;28;20509;-87
2022/11/21 12:26:33;;;;;;;19.75;5.90;;;4.10;99.90;;;;;;4991112;28;20079;-86
2022/11/21 12:29:21;;;;;;;22.27;4.90;;;4.00;99.90;;;;;;4994627;28;20370;-86
2022/11/21 12:31:49;;;;;;;23.52;4.03;;;3.90;99.90;;;;;;4977978;28;20122;-86
2022/11/21 12:34:49;;;;;;;12.52;3.58;;;3.90;99.90;;;;;;5006923;28;20034;-87
2022/11/21 12:37:21;;;;;;;14.85;3.67;;;3.80;99.90;;;;;;4978659;28;20037;-86
2022/11/21 12:40:14;;;;;;;10.70;3.80;;;3.90;99.90;;;;;;4994503;28;20035;-87
2022/11/21 12:42:49;;;;;;;23.98;3.80;;;3.80;99.90;;;;;;4992476;28;20037;-87
2022/11/21 12:45:29;;;;;;;23.35;4.28;;;3.80;99.90;;;;;;4993529;28;20042;-86
2022/11/21 12:57:04;;;;;;;19.30;4.93;;;4.30;99.90;;;;;;4993043;28;20042;-86
2022/11/21 12:59:34;;;;;;;23.08;10.38;;;4.60;99.90;;;;;;4990845;28;20031;-87
2022/11/21 13:02:11;;;;;;;34.37;14.53;;;4.80;99.90;;;;;;5006702;28;20061;-87
2022/11/21 13:04:39;;;;;;;26.58;12.82;;;5.00;99.90;;;;;;5002790;28;20316;-87
2022/11/21 13:07:06;;;;;;;22.55;10.57;;;5.20;99.90;;;;;;4983184;28;20023;-87
2022/11/21 13:09:39;;;;;;;34.70;9.88;;;5.30;99.90;;;;;;4988939;28;20622;-86
2022/11/21 13:12:21;;;;;;;20.05;9.15;;;5.40;99.90;;;;;;4989699;28;20046;-87
2022/11/21 13:15:19;;;;;;;21.45;6.63;;;5.40;99.90;;;;;;5007237;28;20121;-86
2022/11/21 13:18:15;;;;;;;26.33;7.80;;;5.40;99.90;;;;;;4991929;28;20093;-86
2022/11/21 13:20:49;;;;;;;23.27;7.43;;;5.50;99.90;;;;;;4975451;28;20568;-86
2022/11/21 13:23:35;;;;;;;18.15;8.02;;;5.90;99.90;;;;;;4994492;28;20042;-86
2022/11/21 13:26:01;;;;;;;18.05;6.70;;;6.10;99.90;;;;;;4992987;28;20038;-87
2022/11/21 13:28:32;;;;;;;9.70;3.72;;;6.00;99.90;;;;;;4992889;28;20041;-86
2022/11/21 13:31:01;;;;;;;14.05;3.70;;;5.80;99.90;;;;;;4993430;28;20034;-87
2022/11/21 13:33:36;;;;;;;10.23;4.18;;;5.60;99.90;;;;;;4992542;28;20037;-86
2022/11/21 13:36:04;;;;;;;11.98;4.25;;;5.30;99.90;;;;;;4993265;28;20053;-86
2022/11/21 13:38:31;;;;;;;22.23;4.28;;;5.10;99.90;;;;;;4993230;28;20026;-86
2022/11/21 13:43:41;;;;;;;16.55;5.15;;;5.10;99.90;;;;;;4992771;28;20084;-86
2022/11/21 13:46:07;;;;;;;20.90;5.07;;;5.10;99.90;;;;;;4992160;28;20054;-86